Moorhead, MN

4:20 AM CDT on September 21, 2017 (GMT -0500)
Moorhead Municipal

Weather History for KJKJ - February, 2014

Change the Weather History Date:

Saturday, February 8, 2014

  Actual Average (KFAR) Record (KFAR)
Temperature  
Mean Temperature -6 °F -  
Max Temperature 1 °F 17 °F 51 °F (1898)
Min Temperature -14 °F 0 °F -38 °F (1888)
Degree Days  
Heating Degree Days 72    
Moisture  
Dew Point -9 °F    
Average Humidity 84    
Maximum Humidity 92    
Minimum Humidity 77    
Precipitation  
Precipitation 0.00 in - - ()
Sea Level Pressure  
Sea Level Pressure 30.14 in    
Wind  
Wind Speed 5 mph (North)    
Max Wind Speed 15 mph    
Max Gust Speed -    
Visibility 10 miles    
Events      
Averages and records for this station are not official NWS values.
T = Trace of Precipitation, MM = Missing Value Source: NWS Daily Summary

Daily Weather History Graph

Daily Weather History Graph

Search for Another Location

Airport or City:

Trip Planner

Search our weather history database for the weather conditions in past years. The results will help you decide how hot, cold, wet, or windy it might be!

Date:

Astronomy

Feb. 08, 2014 Rise Set
Actual Time 7:41 AM CST 5:40 PM CST
Civil Twilight 7:09 AM CST 6:12 PM CST
Nautical Twilight 6:33 AM CST 6:48 PM CST
Astronomical Twilight 5:58 AM CST 7:23 PM CST
Moon 12:29 PM CST (2/8) 3:00 AM CST (2/8)
Length of Visible Light 11h 02m
Length of Day
9h 59m
Waxing Gibbous, 69% of the Moon is Illuminated
Feb 8
Waxing Gibbous
Feb 14
Full
Feb 22
Last Quarter
Mar 1
New
Mar 8
First Quarter

Hourly Weather History & Observations

Time (CST) Temp. Windchill Dew Point Humidity Pressure Visibility Wind Dir Wind Speed Gust Speed Precip Events Conditions
12:15 AM -2.2 °F -10.4 °F -7.6 °F 78% 30.06 in 10.0 mi South 3.5 mph - N/A   Clear
12:34 AM -4.0 °F -14.6 °F -7.6 °F 85% 30.06 in 10.0 mi SSW 4.6 mph - N/A   Clear
12:54 AM -4.0 °F -16.3 °F -9.4 °F 78% 30.07 in 10.0 mi SSW 5.8 mph - N/A   Clear
1:15 AM -5.8 °F -14.5 °F -11.2 °F 77% 30.06 in 10.0 mi South 3.5 mph - N/A   Clear
1:35 AM -7.6 °F - -11.2 °F 84% 30.07 in 10.0 mi Calm Calm - N/A   Clear
1:55 AM -9.4 °F - -14.8 °F 77% 30.06 in 10.0 mi Calm Calm - N/A   Clear
2:15 AM -9.4 °F -20.9 °F -14.8 °F 77% 30.06 in 10.0 mi SSE 4.6 mph - N/A   Clear
2:34 AM -11.2 °F - -14.8 °F 84% 30.06 in 10.0 mi Calm Calm - N/A   Clear
2:55 AM -9.4 °F -20.9 °F -13.0 °F 84% 30.06 in 10.0 mi SE 4.6 mph - N/A   Clear
3:15 AM -7.6 °F -18.8 °F -11.2 °F 84% 30.06 in 10.0 mi SSE 4.6 mph - N/A   Clear
3:34 AM -7.6 °F -16.5 °F -11.2 °F 84% 30.06 in 10.0 mi South 3.5 mph - N/A   Clear
3:55 AM -14.8 °F - -18.4 °F 84% 30.06 in 10.0 mi Calm Calm - N/A   Clear
4:14 AM -14.8 °F - -18.4 °F 84% 30.06 in 10.0 mi Calm Calm - N/A   Clear
4:34 AM -13.0 °F - -16.6 °F 84% 30.06 in 10.0 mi Calm Calm - N/A   Clear
4:55 AM -11.2 °F - -14.8 °F 84% 30.05 in 10.0 mi Calm Calm - N/A   Clear
5:14 AM -9.4 °F - -13.0 °F 84% 30.06 in 10.0 mi Calm Calm - N/A   Clear
5:35 AM -14.8 °F - -16.6 °F 92% 30.06 in 10.0 mi Calm Calm - N/A   Clear
5:55 AM -14.8 °F - -18.4 °F 84% 30.06 in 10.0 mi Calm Calm - N/A   Clear
6:14 AM -14.8 °F - -18.4 °F 84% 30.06 in 10.0 mi Calm Calm - N/A   Clear
6:35 AM -13.0 °F - -16.6 °F 84% 30.07 in 10.0 mi Calm Calm - N/A   Clear
6:55 AM -14.8 °F - -18.4 °F 84% 30.07 in 10.0 mi Calm Calm - N/A   Clear
7:14 AM -14.8 °F - -16.6 °F 92% 30.07 in 10.0 mi Calm Calm - N/A   Clear
7:35 AM -11.2 °F - -14.8 °F 84% 30.07 in 10.0 mi Calm Calm - N/A   Clear
7:55 AM -11.2 °F - -14.8 °F 84% 30.08 in 10.0 mi Calm Calm - N/A   Clear
8:14 AM -11.2 °F - -14.8 °F 84% 30.08 in 10.0 mi Calm Calm - N/A   Clear
8:35 AM -9.4 °F - -14.8 °F 77% 30.08 in 7.0 mi Calm Calm - N/A   Clear
8:54 AM -9.4 °F - -14.8 °F 77% 30.08 in 10.0 mi Calm Calm - N/A   Clear
9:15 AM -11.2 °F - -14.8 °F 84% 30.10 in 10.0 mi Calm Calm - N/A   Clear
9:35 AM -11.2 °F - -14.8 °F 84% 30.09 in 10.0 mi Calm Calm - N/A   Clear
9:54 AM -9.4 °F - -13.0 °F 84% 30.09 in 10.0 mi Calm Calm - N/A   Clear
10:15 AM -7.6 °F -16.5 °F -11.2 °F 84% 30.10 in 10.0 mi North 3.5 mph - N/A   Clear
10:35 AM -7.6 °F -18.8 °F -9.4 °F 92% 30.10 in 10.0 mi North 4.6 mph - N/A   Clear
10:54 AM -7.6 °F -16.5 °F -9.4 °F 92% 30.11 in 10.0 mi North 3.5 mph - N/A   Clear
11:15 AM -5.8 °F -18.4 °F -9.4 °F 84% 30.11 in 10.0 mi North 5.8 mph - N/A   Clear
11:34 AM -5.8 °F -18.4 °F -7.6 °F 92% 30.12 in 7.0 mi North 5.8 mph - N/A   Scattered Clouds
11:55 AM -4.0 °F -16.3 °F -7.6 °F 85% 30.12 in 10.0 mi North 5.8 mph - N/A   Scattered Clouds
12:15 PM -2.2 °F -15.6 °F -5.8 °F 85% 30.12 in 10.0 mi North 6.9 mph - N/A   Clear
12:34 PM -2.2 °F -18.0 °F -5.8 °F 85% 30.12 in 10.0 mi North 9.2 mph - N/A   Clear
12:55 PM -2.2 °F -16.8 °F -5.8 °F 85% 30.12 in 10.0 mi North 8.1 mph - N/A   Clear
1:14 PM -2.2 °F -18.0 °F -4.0 °F 92% 30.12 in 10.0 mi North 9.2 mph - N/A   Clear
1:35 PM -0.4 °F -15.7 °F -4.0 °F 85% 30.13 in 10.0 mi North 9.2 mph - N/A   Clear
1:55 PM -0.4 °F -15.7 °F -4.0 °F 85% 30.13 in 10.0 mi North 9.2 mph - N/A   Clear
2:14 PM -0.4 °F -16.7 °F -5.8 °F 78% 30.13 in 10.0 mi North 10.4 mph - N/A   Clear
2:35 PM -0.4 °F -17.6 °F -4.0 °F 85% 30.14 in 10.0 mi North 11.5 mph - N/A   Clear
2:55 PM 1.4 °F -14.5 °F -2.2 °F 85% 30.14 in 10.0 mi North 10.4 mph - N/A   Clear
3:14 PM 1.4 °F -15.3 °F -2.2 °F 85% 30.15 in 10.0 mi North 11.5 mph - N/A   Clear
3:35 PM 1.4 °F -16.1 °F -2.2 °F 85% 30.15 in 10.0 mi North 12.7 mph - N/A   Clear
3:54 PM 1.4 °F -15.3 °F -2.2 °F 85% 30.16 in 10.0 mi North 11.5 mph - N/A   Clear
4:14 PM 1.4 °F -17.6 °F -2.2 °F 85% 30.16 in 10.0 mi North 15.0 mph - N/A   Clear
4:35 PM 1.4 °F -15.3 °F -2.2 °F 85% 30.17 in 10.0 mi North 11.5 mph - N/A   Clear
4:54 PM 1.4 °F -15.3 °F -2.2 °F 85% 30.18 in 10.0 mi North 11.5 mph - N/A   Clear
5:14 PM 1.4 °F -15.3 °F -2.2 °F 85% 30.19 in 10.0 mi North 11.5 mph - N/A   Clear
5:35 PM 1.4 °F -15.3 °F -2.2 °F 85% 30.20 in 10.0 mi North 11.5 mph - N/A   Clear
5:54 PM -0.4 °F -17.6 °F -2.2 °F 92% 30.21 in 10.0 mi North 11.5 mph - N/A   Clear
6:15 PM -0.4 °F -15.7 °F -4.0 °F 85% 30.22 in 10.0 mi North 9.2 mph - N/A   Clear
6:35 PM -0.4 °F -16.7 °F -4.0 °F 85% 30.23 in 10.0 mi North 10.4 mph - N/A   Clear
6:54 PM -0.4 °F -19.2 °F -4.0 °F 85% 30.23 in 10.0 mi North 13.8 mph - N/A   Clear
7:15 PM -0.4 °F -19.9 °F -4.0 °F 85% 30.24 in 10.0 mi North 15.0 mph - N/A   Clear
7:35 PM -0.4 °F -18.4 °F -4.0 °F 85% 30.25 in 10.0 mi North 12.7 mph - N/A   Clear
7:54 PM -0.4 °F -19.2 °F -4.0 °F 85% 30.26 in 10.0 mi North 13.8 mph - N/A   Clear
8:15 PM -0.4 °F -17.6 °F -5.8 °F 78% 30.26 in 10.0 mi North 11.5 mph - N/A   Clear
8:34 PM -0.4 °F -17.6 °F -5.8 °F 78% 30.27 in 10.0 mi North 11.5 mph - N/A   Clear
8:54 PM -0.4 °F -15.7 °F -5.8 °F 78% 30.27 in 10.0 mi NNW 9.2 mph - N/A   Clear
9:15 PM -0.4 °F -16.7 °F -5.8 °F 78% 30.27 in 10.0 mi North 10.4 mph - N/A   Clear
9:34 PM -2.2 °F -18.9 °F -5.8 °F 85% 30.27 in 10.0 mi North 10.4 mph - N/A   Clear
9:54 PM -2.2 °F -21.5 °F -5.8 °F 85% 30.28 in 10.0 mi NNW 13.8 mph - N/A   Clear
10:15 PM -2.2 °F -20.7 °F -7.6 °F 78% 30.29 in 10.0 mi NNW 12.7 mph - N/A   Clear
10:34 PM -4.0 °F -23.0 °F -7.6 °F 85% 30.30 in 10.0 mi North 12.7 mph - N/A   Clear
10:55 PM -4.0 °F -22.1 °F -7.6 °F 85% 30.29 in 10.0 mi North 11.5 mph - N/A   Clear
11:15 PM -4.0 °F -20.2 °F -9.4 °F 78% 30.30 in 10.0 mi North 9.2 mph - N/A   Clear
11:34 PM -5.8 °F -22.4 °F -9.4 °F 84% 30.30 in 10.0 mi NNW 9.2 mph - N/A   Clear
11:55 PM -5.8 °F -23.4 °F -9.4 °F 84% 30.31 in 10.0 mi North 10.4 mph - N/A   Clear